Wyoming, Nebraska
Current Conditions -  °F | °C
As of 12:55 PM on Monday 20 Oct 2014 (Local Time) from KAFK Reporting Station
Clear Clear  
Wind Chill: 67°   Ceiling: Unl
Heat Index: 67°   Visibility: 10mi
Dew Point: 34°   Wind: 5mph
Humidity: 29%   Direction: 20°NNE
Pressure: 30.09"   Gusts: NA
Location:  40.6534°N, 95.8738°W
Report Text: KAFK 201755Z AUTO 02004KT 10SM CLR 20/01 A3009 RMK AO2 T01960010 10197 20090
Loading
Personal Weather Stations






























Interactive Weather Map
Tropical Storm Tracking
New forecast layout! Learn more

10-Day Weather Forecast

Advertisements
Track Severe Weather on mobile